sensor_id;sensor_type;location;lat;lon;timestamp;pressure;altitude;pressure_sealevel;temperature;humidity
75409;BME280;63979;55.644;37.734;2023-12-20T00:04:25;98486.16;;;4.97;79.65
75409;BME280;63979;55.644;37.734;2023-12-20T00:09:26;98487.75;;;4.87;79.82
75409;BME280;63979;55.644;37.734;2023-12-20T00:14:26;98482.47;;;4.87;79.62
75409;BME280;63979;55.644;37.734;2023-12-20T00:19:27;98483.78;;;4.80;80.09
75409;BME280;63979;55.644;37.734;2023-12-20T00:24:28;98460.81;;;4.67;79.97
75409;BME280;63979;55.644;37.734;2023-12-20T00:29:29;98469.25;;;4.87;79.15
75409;BME280;63979;55.644;37.734;2023-12-20T00:34:29;98504.69;;;5.10;78.79
75409;BME280;63979;55.644;37.734;2023-12-20T00:39:30;98484.81;;;5.04;79.09
75409;BME280;63979;55.644;37.734;2023-12-20T00:44:31;98500.66;;;5.04;79.51
75409;BME280;63979;55.644;37.734;2023-12-20T00:49:32;98496.84;;;5.08;79.51
75409;BME280;63979;55.644;37.734;2023-12-20T00:54:32;98480.75;;;4.86;79.72
75409;BME280;63979;55.644;37.734;2023-12-20T00:59:33;98513.25;;;5.13;79.52
75409;BME280;63979;55.644;37.734;2023-12-20T01:04:34;98498.88;;;5.17;79.31
75409;BME280;63979;55.644;37.734;2023-12-20T01:09:35;98484.69;;;5.06;79.70
75409;BME280;63979;55.644;37.734;2023-12-20T01:14:36;98497.91;;;5.06;80.47
75409;BME280;63979;55.644;37.734;2023-12-20T01:19:36;98476.75;;;4.93;81.26
75409;BME280;63979;55.644;37.734;2023-12-20T01:24:37;98459.91;;;4.81;81.58
75409;BME280;63979;55.644;37.734;2023-12-20T01:29:38;98459.91;;;4.81;81.95
75409;BME280;63979;55.644;37.734;2023-12-20T01:34:39;98466.66;;;4.85;81.65
75409;BME280;63979;55.644;37.734;2023-12-20T01:39:40;98472.94;;;4.97;80.98
75409;BME280;63979;55.644;37.734;2023-12-20T01:44:40;98473.38;;;4.91;81.08
75409;BME280;63979;55.644;37.734;2023-12-20T01:49:41;98472.31;;;4.93;80.72
75409;BME280;63979;55.644;37.734;2023-12-20T01:54:42;98453.28;;;4.88;80.35
75409;BME280;63979;55.644;37.734;2023-12-20T01:59:43;98437.38;;;4.76;80.47
75409;BME280;63979;55.644;37.734;2023-12-20T02:04:45;98429.13;;;4.67;80.22
75409;BME280;63979;55.644;37.734;2023-12-20T02:09:46;98451.44;;;4.76;79.87
75409;BME280;63979;55.644;37.734;2023-12-20T02:14:48;98464.53;;;4.65;79.58
75409;BME280;63979;55.644;37.734;2023-12-20T02:19:49;98450.88;;;4.58;79.22
75409;BME280;63979;55.644;37.734;2023-12-20T02:24:50;98429.19;;;4.53;78.83
75409;BME280;63979;55.644;37.734;2023-12-20T02:29:51;98438.31;;;4.62;78.69
75409;BME280;63979;55.644;37.734;2023-12-20T02:34:52;98430.28;;;4.63;78.70
75409;BME280;63979;55.644;37.734;2023-12-20T02:39:52;98396.28;;;4.32;79.22
75409;BME280;63979;55.644;37.734;2023-12-20T02:44:53;98429.94;;;4.55;79.39
75409;BME280;63979;55.644;37.734;2023-12-20T02:49:54;98441.56;;;4.53;79.99
75409;BME280;63979;55.644;37.734;2023-12-20T02:54:55;98401.56;;;4.32;80.44
75409;BME280;63979;55.644;37.734;2023-12-20T02:59:55;98434.13;;;4.45;80.78
75409;BME280;63979;55.644;37.734;2023-12-20T03:04:56;98433.28;;;4.45;81.33
75409;BME280;63979;55.644;37.734;2023-12-20T03:09:57;98426.72;;;4.50;81.10
75409;BME280;63979;55.644;37.734;2023-12-20T03:14:58;98436.06;;;4.56;81.09
75409;BME280;63979;55.644;37.734;2023-12-20T03:19:58;98433.75;;;4.51;81.18
75409;BME280;63979;55.644;37.734;2023-12-20T03:24:59;98430.53;;;4.46;81.60
75409;BME280;63979;55.644;37.734;2023-12-20T03:30:00;98427.19;;;4.57;81.19
75409;BME280;63979;55.644;37.734;2023-12-20T03:35:01;98414.56;;;4.35;81.63
75409;BME280;63979;55.644;37.734;2023-12-20T03:40:02;98401.44;;;4.33;81.38
75409;BME280;63979;55.644;37.734;2023-12-20T03:45:04;98423.56;;;4.45;81.28
75409;BME280;63979;55.644;37.734;2023-12-20T03:50:06;98432.78;;;4.52;81.12
75409;BME280;63979;55.644;37.734;2023-12-20T03:55:07;98433.34;;;4.57;81.42
75409;BME280;63979;55.644;37.734;2023-12-20T04:00:08;98436.72;;;4.59;81.06
75409;BME280;63979;55.644;37.734;2023-12-20T04:05:11;98442.84;;;4.60;80.69
75409;BME280;63979;55.644;37.734;2023-12-20T04:10:12;98442.88;;;4.73;80.34
75409;BME280;63979;55.644;37.734;2023-12-20T04:15:13;98449.53;;;4.78;80.15
75409;BME280;63979;55.644;37.734;2023-12-20T04:20:13;98451.75;;;4.72;79.93
75409;BME280;63979;55.644;37.734;2023-12-20T04:25:15;98425.53;;;4.68;80.15
75409;BME280;63979;55.644;37.734;2023-12-20T04:30:15;98447.31;;;4.85;80.11
75409;BME280;63979;55.644;37.734;2023-12-20T04:35:16;98460.34;;;4.88;79.86
75409;BME280;63979;55.644;37.734;2023-12-20T04:40:17;98454.50;;;4.83;79.70
75409;BME280;63979;55.644;37.734;2023-12-20T04:45:18;98451.44;;;4.76;79.70
75409;BME280;63979;55.644;37.734;2023-12-20T04:50:20;98454.06;;;4.76;79.79
75409;BME280;63979;55.644;37.734;2023-12-20T04:55:22;98456.09;;;4.85;79.42
75409;BME280;63979;55.644;37.734;2023-12-20T05:00:22;98454.81;;;4.65;78.59
75409;BME280;63979;55.644;37.734;2023-12-20T05:05:23;98466.03;;;4.82;77.53
75409;BME280;63979;55.644;37.734;2023-12-20T05:10:24;98463.56;;;4.66;77.67
75409;BME280;63979;55.644;37.734;2023-12-20T05:15:25;98457.78;;;4.74;77.29
75409;BME280;63979;55.644;37.734;2023-12-20T05:20:25;98468.63;;;4.56;78.13
75409;BME280;63979;55.644;37.734;2023-12-20T05:25:26;98473.38;;;4.51;78.24
75409;BME280;63979;55.644;37.734;2023-12-20T05:30:27;98474.41;;;4.49;78.50
75409;BME280;63979;55.644;37.734;2023-12-20T05:35:28;98473.66;;;4.47;78.83
75409;BME280;63979;55.644;37.734;2023-12-20T05:40:29;98491.59;;;4.42;79.50
75409;BME280;63979;55.644;37.734;2023-12-20T05:45:30;98478.28;;;4.43;80.04
75409;BME280;63979;55.644;37.734;2023-12-20T05:50:31;98488.00;;;4.43;80.09
75409;BME280;63979;55.644;37.734;2023-12-20T05:55:31;98482.69;;;4.30;80.84
75409;BME280;63979;55.644;37.734;2023-12-20T06:00:32;98487.41;;;4.25;81.32
75409;BME280;63979;55.644;37.734;2023-12-20T06:05:33;98491.66;;;4.27;81.00
75409;BME280;63979;55.644;37.734;2023-12-20T06:10:34;98476.00;;;4.24;80.77
75409;BME280;63979;55.644;37.734;2023-12-20T06:15:35;98487.66;;;4.34;80.05
75409;BME280;63979;55.644;37.734;2023-12-20T06:20:36;98500.97;;;4.60;79.14
75409;BME280;63979;55.644;37.734;2023-12-20T06:25:36;98480.72;;;4.46;78.96
75409;BME280;63979;55.644;37.734;2023-12-20T06:30:37;98509.34;;;4.66;78.07
75409;BME280;63979;55.644;37.734;2023-12-20T06:35:38;98509.03;;;4.71;77.98
75409;BME280;63979;55.644;37.734;2023-12-20T06:40:39;98496.56;;;4.73;77.95
75409;BME280;63979;55.644;37.734;2023-12-20T06:45:39;98504.44;;;4.87;77.33
75409;BME280;63979;55.644;37.734;2023-12-20T06:50:41;98495.06;;;4.96;76.93
75409;BME280;63979;55.644;37.734;2023-12-20T06:55:42;98496.44;;;5.14;76.29
75409;BME280;63979;55.644;37.734;2023-12-20T07:00:43;98494.53;;;5.16;75.34
75409;BME280;63979;55.644;37.734;2023-12-20T07:05:44;98495.31;;;5.31;75.43
75409;BME280;63979;55.644;37.734;2023-12-20T07:10:44;98499.00;;;5.41;74.76
75409;BME280;63979;55.644;37.734;2023-12-20T07:15:45;98503.44;;;5.41;74.59
75409;BME280;63979;55.644;37.734;2023-12-20T07:20:46;98496.88;;;5.46;74.07
75409;BME280;63979;55.644;37.734;2023-12-20T07:25:47;98486.84;;;5.39;74.70
75409;BME280;63979;55.644;37.734;2023-12-20T07:30:48;98492.44;;;5.34;74.35
75409;BME280;63979;55.644;37.734;2023-12-20T07:35:49;98507.69;;;5.30;74.93
75409;BME280;63979;55.644;37.734;2023-12-20T07:40:52;98526.53;;;5.39;75.23
75409;BME280;63979;55.644;37.734;2023-12-20T07:45:53;98525.69;;;5.25;75.07
75409;BME280;63979;55.644;37.734;2023-12-20T07:50:53;98535.31;;;5.39;74.91
75409;BME280;63979;55.644;37.734;2023-12-20T07:55:55;98510.41;;;5.16;75.04
75409;BME280;63979;55.644;37.734;2023-12-20T08:00:56;98547.69;;;5.39;74.74
75409;BME280;63979;55.644;37.734;2023-12-20T08:05:56;98544.41;;;5.35;74.98
75409;BME280;63979;55.644;37.734;2023-12-20T08:10:59;98539.53;;;5.42;74.33
75409;BME280;63979;55.644;37.734;2023-12-20T08:16:00;98543.44;;;5.23;75.01
75409;BME280;63979;55.644;37.734;2023-12-20T08:21:03;98547.06;;;5.35;74.60
75409;BME280;63979;55.644;37.734;2023-12-20T08:26:05;98551.28;;;5.50;74.24
75409;BME280;63979;55.644;37.734;2023-12-20T08:31:13;98533.09;;;5.71;73.35
75409;BME280;63979;55.644;37.734;2023-12-20T08:36:15;98507.47;;;5.46;73.59
75409;BME280;63979;55.644;37.734;2023-12-20T08:41:18;98535.75;;;5.71;73.44
75409;BME280;63979;55.644;37.734;2023-12-20T08:46:19;98516.16;;;5.48;74.18
75409;BME280;63979;55.644;37.734;2023-12-20T08:51:19;98523.66;;;5.54;74.74
75409;BME280;63979;55.644;37.734;2023-12-20T08:56:21;98519.34;;;5.41;75.52
75409;BME280;63979;55.644;37.734;2023-12-20T09:01:22;98494.78;;;5.26;76.00
75409;BME280;63979;55.644;37.734;2023-12-20T09:06:23;98522.72;;;5.43;76.21
75409;BME280;63979;55.644;37.734;2023-12-20T09:11:25;98524.63;;;5.41;76.05
75409;BME280;63979;55.644;37.734;2023-12-20T09:16:26;98530.22;;;5.49;76.24
75409;BME280;63979;55.644;37.734;2023-12-20T09:21:27;98532.78;;;5.50;76.19
75409;BME280;63979;55.644;37.734;2023-12-20T09:26:27;98525.78;;;5.37;77.10
75409;BME280;63979;55.644;37.734;2023-12-20T09:31:28;98488.06;;;4.95;77.96
75409;BME280;63979;55.644;37.734;2023-12-20T09:36:29;98513.81;;;5.31;77.88
75409;BME280;63979;55.644;37.734;2023-12-20T09:41:37;98518.06;;;5.33;77.68
75409;BME280;63979;55.644;37.734;2023-12-20T09:46:44;98497.84;;;5.32;77.12
75409;BME280;63979;55.644;37.734;2023-12-20T09:51:46;98489.38;;;5.40;77.20
75409;BME280;63979;55.644;37.734;2023-12-20T09:56:47;98501.34;;;5.46;76.86
75409;BME280;63979;55.644;37.734;2023-12-20T10:01:49;98500.91;;;5.52;76.50
75409;BME280;63979;55.644;37.734;2023-12-20T10:06:51;98514.34;;;5.36;76.78
75409;BME280;63979;55.644;37.734;2023-12-20T10:11:54;98522.72;;;5.30;77.10
75409;BME280;63979;55.644;37.734;2023-12-20T10:17:02;98516.38;;;5.45;76.12
75409;BME280;63979;55.644;37.734;2023-12-20T10:22:04;98515.31;;;5.35;76.82
75409;BME280;63979;55.644;37.734;2023-12-20T10:27:06;98494.97;;;5.10;76.84
75409;BME280;63979;55.644;37.734;2023-12-20T10:32:24;98519.97;;;5.31;76.82
75409;BME280;63979;55.644;37.734;2023-12-20T10:37:25;98521.34;;;5.24;76.54
75409;BME280;63979;55.644;37.734;2023-12-20T10:42:26;98501.34;;;5.20;76.70
75409;BME280;63979;55.644;37.734;2023-12-20T10:47:28;98500.91;;;5.26;76.53
75409;BME280;63979;55.644;37.734;2023-12-20T10:52:32;98533.19;;;5.31;77.02
75409;BME280;63979;55.644;37.734;2023-12-20T10:57:36;98532.78;;;5.38;77.18
75409;BME280;63979;55.644;37.734;2023-12-20T11:02:40;98537.75;;;5.29;77.06
75409;BME280;63979;55.644;37.734;2023-12-20T11:07:48;98540.91;;;5.35;76.70
75409;BME280;63979;55.644;37.734;2023-12-20T11:13:01;98523.56;;;5.30;76.87
75409;BME280;63979;55.644;37.734;2023-12-20T11:18:09;98541.25;;;5.43;76.49
75409;BME280;63979;55.644;37.734;2023-12-20T11:23:11;98538.44;;;5.19;77.00
75409;BME280;63979;55.644;37.734;2023-12-20T11:28:12;98542.41;;;5.39;77.07
75409;BME280;63979;55.644;37.734;2023-12-20T11:33:14;98512.72;;;5.08;77.43
75409;BME280;63979;55.644;37.734;2023-12-20T11:38:16;98536.38;;;5.37;76.44
75409;BME280;63979;55.644;37.734;2023-12-20T11:43:30;98540.19;;;5.32;76.98
75409;BME280;63979;55.644;37.734;2023-12-20T11:48:34;98537.41;;;5.21;77.43
75409;BME280;63979;55.644;37.734;2023-12-20T11:53:36;98542.41;;;5.39;76.91
75409;BME280;63979;55.644;37.734;2023-12-20T11:58:37;98524.41;;;5.31;76.67
75409;BME280;63979;55.644;37.734;2023-12-20T12:03:39;98531.13;;;4.97;77.92
75409;BME280;63979;55.644;37.734;2023-12-20T12:08:40;98537.28;;;5.10;77.74
75409;BME280;63979;55.644;37.734;2023-12-20T12:13:41;98516.81;;;4.87;77.78
75409;BME280;63979;55.644;37.734;2023-12-20T12:18:42;98550.66;;;5.21;76.82
75409;BME280;63979;55.644;37.734;2023-12-20T12:23:43;98542.03;;;5.18;77.00
75409;BME280;63979;55.644;37.734;2023-12-20T12:28:44;98559.38;;;5.09;77.08
75409;BME280;63979;55.644;37.734;2023-12-20T12:33:45;98526.28;;;4.77;77.86
75409;BME280;63979;55.644;37.734;2023-12-20T12:38:46;98560.00;;;5.00;78.01
75409;BME280;63979;55.644;37.734;2023-12-20T12:43:47;98575.66;;;5.03;77.63
75409;BME280;63979;55.644;37.734;2023-12-20T12:48:48;98578.75;;;5.10;77.34
75409;BME280;63979;55.644;37.734;2023-12-20T12:53:50;98572.16;;;5.03;77.73
75409;BME280;63979;55.644;37.734;2023-12-20T12:58:51;98587.53;;;5.10;77.36
75409;BME280;63979;55.644;37.734;2023-12-20T13:03:52;98592.06;;;5.08;77.39
75409;BME280;63979;55.644;37.734;2023-12-20T13:08:53;98604.00;;;5.01;77.61
75409;BME280;63979;55.644;37.734;2023-12-20T13:13:53;98596.50;;;5.08;77.31
75409;BME280;63979;55.644;37.734;2023-12-20T13:18:54;98594.38;;;5.00;77.15
75409;BME280;63979;55.644;37.734;2023-12-20T13:23:55;98590.56;;;5.04;77.42
75409;BME280;63979;55.644;37.734;2023-12-20T13:28:56;98596.63;;;5.06;77.19
75409;BME280;63979;55.644;37.734;2023-12-20T13:33:57;98571.41;;;4.88;77.02
75409;BME280;63979;55.644;37.734;2023-12-20T13:38:57;98576.31;;;4.80;77.38
75409;BME280;63979;55.644;37.734;2023-12-20T13:43:58;98606.66;;;5.01;77.51
75409;BME280;63979;55.644;37.734;2023-12-20T13:48:59;98613.06;;;4.70;78.04
75409;BME280;63979;55.644;37.734;2023-12-20T13:54:00;98616.50;;;4.85;77.61
75409;BME280;63979;55.644;37.734;2023-12-20T13:59:01;98611.72;;;4.77;77.81
75409;BME280;63979;55.644;37.734;2023-12-20T14:04:02;98617.72;;;4.66;78.33
75409;BME280;63979;55.644;37.734;2023-12-20T14:09:02;98615.66;;;4.43;79.08
75409;BME280;63979;55.644;37.734;2023-12-20T14:14:04;98616.22;;;4.48;79.35
75409;BME280;63979;55.644;37.734;2023-12-20T14:19:04;98616.41;;;4.59;78.75
75409;BME280;63979;55.644;37.734;2023-12-20T14:24:07;98605.84;;;4.45;79.13
75409;BME280;63979;55.644;37.734;2023-12-20T14:29:08;98616.06;;;4.37;79.74
75409;BME280;63979;55.644;37.734;2023-12-20T14:34:10;98623.88;;;4.53;79.61
75409;BME280;63979;55.644;37.734;2023-12-20T14:39:11;98612.66;;;4.35;80.30
75409;BME280;63979;55.644;37.734;2023-12-20T14:44:13;98603.84;;;4.49;79.74
75409;BME280;63979;55.644;37.734;2023-12-20T14:49:14;98611.69;;;4.50;79.06
75409;BME280;63979;55.644;37.734;2023-12-20T14:54:15;98619.41;;;4.67;78.72
75409;BME280;63979;55.644;37.734;2023-12-20T14:59:15;98612.06;;;4.58;78.84
75409;BME280;63979;55.644;37.734;2023-12-20T15:04:16;98621.25;;;4.53;78.96
75409;BME280;63979;55.644;37.734;2023-12-20T15:09:17;98623.00;;;4.66;78.21
75409;BME280;63979;55.644;37.734;2023-12-20T15:14:18;98627.72;;;4.61;78.85
75409;BME280;63979;55.644;37.734;2023-12-20T15:19:20;98624.34;;;4.59;78.70
75409;BME280;63979;55.644;37.734;2023-12-20T15:24:21;98624.97;;;4.63;78.61
75409;BME280;63979;55.644;37.734;2023-12-20T15:29:29;98610.47;;;4.56;78.58
75409;BME280;63979;55.644;37.734;2023-12-20T15:34:29;98612.25;;;4.55;78.55
75409;BME280;63979;55.644;37.734;2023-12-20T15:39:30;98626.56;;;4.65;78.05
75409;BME280;63979;55.644;37.734;2023-12-20T15:44:31;98645.03;;;4.80;77.79
75409;BME280;63979;55.644;37.734;2023-12-20T15:49:32;98651.28;;;4.79;77.56
75409;BME280;63979;55.644;37.734;2023-12-20T15:54:33;98659.41;;;4.76;77.30
75409;BME280;63979;55.644;37.734;2023-12-20T15:59:34;98666.00;;;4.83;76.78
75409;BME280;63979;55.644;37.734;2023-12-20T16:04:36;98668.81;;;4.80;77.12
75409;BME280;63979;55.644;37.734;2023-12-20T16:09:37;98664.28;;;4.82;76.70
75409;BME280;63979;55.644;37.734;2023-12-20T16:14:38;98660.25;;;4.76;76.48
75409;BME280;63979;55.644;37.734;2023-12-20T16:19:39;98682.72;;;4.69;76.60
75409;BME280;63979;55.644;37.734;2023-12-20T16:24:40;98682.53;;;4.72;75.55
75409;BME280;63979;55.644;37.734;2023-12-20T16:29:41;98676.31;;;4.73;75.30
75409;BME280;63979;55.644;37.734;2023-12-20T16:34:42;98660.53;;;4.86;74.64
75409;BME280;63979;55.644;37.734;2023-12-20T16:39:44;98666.59;;;4.74;74.71
75409;BME280;63979;55.644;37.734;2023-12-20T16:44:44;98674.50;;;4.74;75.27
75409;BME280;63979;55.644;37.734;2023-12-20T16:49:45;98688.22;;;4.66;75.02
75409;BME280;63979;55.644;37.734;2023-12-20T16:54:46;98691.53;;;4.55;75.29
75409;BME280;63979;55.644;37.734;2023-12-20T16:59:47;98699.28;;;4.58;74.48
75409;BME280;63979;55.644;37.734;2023-12-20T17:04:47;98683.88;;;4.65;73.98
75409;BME280;63979;55.644;37.734;2023-12-20T17:09:50;98684.53;;;4.68;71.86
75409;BME280;63979;55.644;37.734;2023-12-20T17:14:51;98684.53;;;4.68;71.84
75409;BME280;63979;55.644;37.734;2023-12-20T17:19:52;98668.41;;;4.59;71.44
75409;BME280;63979;55.644;37.734;2023-12-20T17:24:53;98694.69;;;4.89;71.04
75409;BME280;63979;55.644;37.734;2023-12-20T17:29:54;98701.69;;;4.90;70.84
75409;BME280;63979;55.644;37.734;2023-12-20T17:34:55;98696.97;;;4.81;70.62
75409;BME280;63979;55.644;37.734;2023-12-20T17:39:56;98695.06;;;4.83;70.48
75409;BME280;63979;55.644;37.734;2023-12-20T17:44:57;98683.38;;;4.87;70.33
75409;BME280;63979;55.644;37.734;2023-12-20T17:49:58;98684.59;;;4.81;70.52
75409;BME280;63979;55.644;37.734;2023-12-20T17:54:59;98681.97;;;4.67;70.84
75409;BME280;63979;55.644;37.734;2023-12-20T18:00:17;98660.56;;;4.57;71.04
75409;BME280;63979;55.644;37.734;2023-12-20T18:05:19;98685.44;;;4.82;70.63
75409;BME280;63979;55.644;37.734;2023-12-20T18:10:21;98685.44;;;4.82;70.55
75409;BME280;63979;55.644;37.734;2023-12-20T18:15:22;98700.44;;;4.81;70.50
75409;BME280;63979;55.644;37.734;2023-12-20T18:20:22;98704.44;;;4.74;71.18
75409;BME280;63979;55.644;37.734;2023-12-20T18:25:23;98689.41;;;4.75;71.16
75409;BME280;63979;55.644;37.734;2023-12-20T18:30:24;98682.34;;;4.75;71.11
75409;BME280;63979;55.644;37.734;2023-12-20T18:35:25;98679.50;;;4.78;71.49
75409;BME280;63979;55.644;37.734;2023-12-20T18:40:26;98658.88;;;4.56;71.48
75409;BME280;63979;55.644;37.734;2023-12-20T18:45:29;98687.34;;;4.80;71.48
75409;BME280;63979;55.644;37.734;2023-12-20T18:50:30;98687.97;;;4.83;71.50
75409;BME280;63979;55.644;37.734;2023-12-20T18:55:31;98693.94;;;4.87;72.03
75409;BME280;63979;55.644;37.734;2023-12-20T19:00:32;98705.28;;;4.75;73.07
75409;BME280;63979;55.644;37.734;2023-12-20T19:05:33;98702.28;;;4.66;73.46
75409;BME280;63979;55.644;37.734;2023-12-20T19:10:33;98697.34;;;4.75;74.32
75409;BME280;63979;55.644;37.734;2023-12-20T19:15:34;98699.34;;;4.71;73.95
75409;BME280;63979;55.644;37.734;2023-12-20T19:20:35;98691.97;;;4.76;74.50
75409;BME280;63979;55.644;37.734;2023-12-20T19:25:36;98691.66;;;4.81;74.93
75409;BME280;63979;55.644;37.734;2023-12-20T19:30:37;98690.81;;;4.80;75.17
75409;BME280;63979;55.644;37.734;2023-12-20T19:35:38;98687.22;;;4.81;75.26
75409;BME280;63979;55.644;37.734;2023-12-20T19:40:39;98682.16;;;4.78;75.21
75409;BME280;63979;55.644;37.734;2023-12-20T19:45:40;98681.50;;;4.75;75.50
75409;BME280;63979;55.644;37.734;2023-12-20T19:50:41;98675.84;;;4.66;75.58
75409;BME280;63979;55.644;37.734;2023-12-20T19:55:42;98682.19;;;4.64;75.53
75409;BME280;63979;55.644;37.734;2023-12-20T20:00:43;98676.91;;;4.64;75.49
75409;BME280;63979;55.644;37.734;2023-12-20T20:05:44;98688.41;;;4.49;76.56
75409;BME280;63979;55.644;37.734;2023-12-20T20:10:44;98675.47;;;4.44;75.89
75409;BME280;63979;55.644;37.734;2023-12-20T20:15:47;98698.13;;;4.48;75.78
75409;BME280;63979;55.644;37.734;2023-12-20T20:20:48;98681.91;;;4.40;75.44
75409;BME280;63979;55.644;37.734;2023-12-20T20:25:48;98679.63;;;4.62;74.93
75409;BME280;63979;55.644;37.734;2023-12-20T20:30:49;98659.94;;;4.54;74.57
75409;BME280;63979;55.644;37.734;2023-12-20T20:35:50;98667.25;;;4.49;75.63
75409;BME280;63979;55.644;37.734;2023-12-20T20:40:51;98687.00;;;4.29;76.22
75409;BME280;63979;55.644;37.734;2023-12-20T20:45:55;98640.03;;;4.20;76.59
75409;BME280;63979;55.644;37.734;2023-12-20T20:50:56;98642.63;;;4.48;76.39
75409;BME280;63979;55.644;37.734;2023-12-20T20:55:59;98625.59;;;4.11;76.58
75409;BME280;63979;55.644;37.734;2023-12-20T21:00:59;98640.88;;;4.06;78.09
75409;BME280;63979;55.644;37.734;2023-12-20T21:06:00;98650.38;;;3.94;78.55
75409;BME280;63979;55.644;37.734;2023-12-20T21:11:01;98643.03;;;3.99;79.24
75409;BME280;63979;55.644;37.734;2023-12-20T21:16:02;98616.44;;;4.02;79.25
75409;BME280;63979;55.644;37.734;2023-12-20T21:21:04;98608.81;;;4.26;78.34
75409;BME280;63979;55.644;37.734;2023-12-20T21:26:05;98595.31;;;4.31;77.67
75409;BME280;63979;55.644;37.734;2023-12-20T21:31:06;98585.34;;;4.22;78.58
75409;BME280;63979;55.644;37.734;2023-12-20T21:36:07;98568.06;;;4.02;79.37
75409;BME280;63979;55.644;37.734;2023-12-20T21:41:08;98563.84;;;3.99;79.61
75409;BME280;63979;55.644;37.734;2023-12-20T21:46:09;98551.59;;;3.98;79.83
75409;BME280;63979;55.644;37.734;2023-12-20T21:51:10;98518.03;;;3.86;80.12
75409;BME280;63979;55.644;37.734;2023-12-20T21:56:12;98522.38;;;3.87;80.38
75409;BME280;63979;55.644;37.734;2023-12-20T22:01:13;98525.00;;;3.59;81.62
75409;BME280;63979;55.644;37.734;2023-12-20T22:06:13;98501.81;;;3.78;81.22
75409;BME280;63979;55.644;37.734;2023-12-20T22:11:14;98486.25;;;3.73;81.40
75409;BME280;63979;55.644;37.734;2023-12-20T22:16:15;98489.38;;;3.66;81.80
75409;BME280;63979;55.644;37.734;2023-12-20T22:21:16;98485.22;;;3.76;81.78
75409;BME280;63979;55.644;37.734;2023-12-20T22:26:18;98459.41;;;3.67;81.84
75409;BME280;63979;55.644;37.734;2023-12-20T22:31:19;98442.81;;;3.79;81.47
75409;BME280;63979;55.644;37.734;2023-12-20T22:36:20;98457.78;;;3.93;81.45
75409;BME280;63979;55.644;37.734;2023-12-20T22:41:21;98453.34;;;3.93;81.18
75409;BME280;63979;55.644;37.734;2023-12-20T22:46:22;98444.50;;;3.94;80.75
75409;BME280;63979;55.644;37.734;2023-12-20T22:51:23;98441.00;;;3.80;81.58
75409;BME280;63979;55.644;37.734;2023-12-20T22:56:25;98415.44;;;3.53;81.29
75409;BME280;63979;55.644;37.734;2023-12-20T23:01:27;98409.13;;;3.41;81.80
75409;BME280;63979;55.644;37.734;2023-12-20T23:06:28;98420.81;;;3.52;81.32
75409;BME280;63979;55.644;37.734;2023-12-20T23:11:29;98419.13;;;3.36;81.59
75409;BME280;63979;55.644;37.734;2023-12-20T23:16:29;98418.47;;;3.19;81.46
75409;BME280;63979;55.644;37.734;2023-12-20T23:21:30;98412.91;;;3.23;81.23
75409;BME280;63979;55.644;37.734;2023-12-20T23:26:31;98415.34;;;2.98;81.55
75409;BME280;63979;55.644;37.734;2023-12-20T23:31:32;98410.25;;;2.95;81.99
75409;BME280;63979;55.644;37.734;2023-12-20T23:36:33;98405.94;;;2.79;82.05
75409;BME280;63979;55.644;37.734;2023-12-20T23:41:34;98403.28;;;2.94;81.78
75409;BME280;63979;55.644;37.734;2023-12-20T23:46:35;98398.34;;;2.59;81.84
75409;BME280;63979;55.644;37.734;2023-12-20T23:51:35;98389.00;;;2.84;81.91
75409;BME280;63979;55.644;37.734;2023-12-20T23:56:36;98376.28;;;2.90;81.33
